Stations météo

Publicité
Mt. St.Vincent, France (7382): Température de l'air & dewpoint: 01.07.2020 13:00:00 - 07.07.2020 13:00:00 (CEST)Mt. St.Vincent, France (7382): Vitesse du vent & gusts: 01.07.2020 13:00:00 - 07.07.2020 13:00:00 (CEST)Mt. St.Vincent, France (7382): Direction du vent: 01.07.2020 13:00:00 - 07.07.2020 13:00:00 (CEST)Mt. St.Vincent, France (7382): Ensoleillement: 01.07.2020 13:00:00 - 07.07.2020 13:00:00 (CEST)Mt. St.Vincent, France (7382): Quantités de précipitations: 01.07.2020 13:00:00 - 07.07.2020 13:00:00 (CEST)
Date & Time tt [°C] td [°C] ff [km/h] ff [knt] fx [km/h] fx [knt] dd sd [min] rr [mm]
07.07.2020 13:00:00 20,5 3,2 7 4 27 14 N 60 0,0
07.07.2020 12:00:00 19,3 3,8 7 4 28 15 N 60 0,0
07.07.2020 11:00:00 18,2 6,4 9 5 31 17 N 60 0,0
07.07.2020 10:00:00 17,2 6,7 7 4 24 13 N 60 0,0
07.07.2020 09:00:00 14,9 6,7 10 6 31 17 NNE 60 0,0
07.07.2020 08:00:00 13,9 5,8 16 9 34 18 NE 60 0,0
07.07.2020 07:00:00 12,6 5,5 13 7 - - NE 37 0,0
07.07.2020 06:00:00 11,6 5,0 15 8 36 19 NE 0 0,0
07.07.2020 05:00:00 12,2 4,9 17 9 35 19 NNE 0 0,0
07.07.2020 04:00:00 12,2 4,7 10 5 28 15 N 0 0,0
07.07.2020 03:00:00 13,3 4,2 12 7 32 18 NNE 0 0,0
07.07.2020 02:00:00 13,6 4,5 10 5 30 16 NNE 0 0,0
07.07.2020 01:00:00 13,8 4,4 10 5 24 13 N 0 0,0
07.07.2020 00:00:00 14,3 4,6 10 5 26 14 N 0 0,0
06.07.2020 23:00:00 14,6 4,6 10 5 26 14 N 0 0,0
06.07.2020 22:00:00 15,0 4,9 8 4 26 14 N 0 0,0
06.07.2020 21:00:00 17,0 5,3 8 4 29 16 N 36 0,0
06.07.2020 20:00:00 19,5 6,2 6 3 23 12 N 53 0,0
06.07.2020 19:00:00 21,0 6,1 5 3 26 14 NW 60 0,0
06.07.2020 18:00:00 21,3 6,0 6 4 34 19 N 57 0,0
06.07.2020 17:00:00 21,6 6,7 6 4 34 18 NW 60 0,0
06.07.2020 16:00:00 21,4 6,5 10 5 37 20 NW 60 0,0
06.07.2020 15:00:00 21,2 7,4 11 6 42 23 WNW 60 0,0
06.07.2020 14:00:00 19,3 7,7 29 16 46 25 WNW 60 0,0
06.07.2020 13:00:00 18,7 8,6 18 10 44 24 WNW 60 0,0
06.07.2020 12:00:00 17,6 10,2 18 10 46 25 WNW 60 0,0
06.07.2020 11:00:00 16,5 10,1 23 13 41 22 WNW 43 0,0
06.07.2020 10:00:00 17,1 11,8 14 8 37 20 WNW 39 0,0
06.07.2020 09:00:00 16,1 13,4 16 8 35 19 WNW 47 0,0
06.07.2020 08:00:00 15,5 14,5 11 6 31 17 WNW 24 0,0
06.07.2020 07:00:00 15,5 15,3 14 7 36 20 WNW 0 0,0
06.07.2020 06:00:00 15,9 15,6 18 10 36 20 WNW 0 0,0
06.07.2020 05:00:00 16,2 15,7 20 11 36 19 W 0 0,0
06.07.2020 04:00:00 16,5 15,7 23 12 42 23 W 0 0,0
06.07.2020 03:00:00 17,1 15,6 27 15 43 23 W 0 0,0
06.07.2020 02:00:00 17,4 15,4 26 14 42 23 W 0 0,0
06.07.2020 01:00:00 18,1 15,2 26 14 40 22 W 0 0,0
06.07.2020 00:00:00 18,8 15,1 26 14 40 22 W 0 0,0
05.07.2020 23:00:00 19,7 15,1 27 14 37 20 W 0 0,0
05.07.2020 22:00:00 19,7 14,7 20 11 36 20 WNW 0 0,0
05.07.2020 21:00:00 21,1 15,2 19 11 38 20 WNW 34 0,0
05.07.2020 20:00:00 22,9 15,7 21 11 39 21 W 60 0,0
05.07.2020 19:00:00 24,0 16,0 22 12 37 20 W 60 0,0
05.07.2020 18:00:00 24,5 16,0 23 12 40 22 W 56 0,0
05.07.2020 17:00:00 23,8 17,1 16 9 40 22 WNW 47 0,0
05.07.2020 16:00:00 23,6 16,6 26 14 40 22 W 54 0,0
05.07.2020 15:00:00 22,4 16,2 26 14 48 26 W 50 0,0
05.07.2020 14:00:00 21,3 15,8 30 16 48 26 W 51 0,0
05.07.2020 13:00:00 21,5 15,6 29 15 46 25 W 54 0,0
05.07.2020 12:00:00 20,7 15,9 26 14 44 24 W 57 0,0
05.07.2020 11:00:00 20,1 15,7 21 11 37 20 W 50 0,0
05.07.2020 10:00:00 17,8 14,7 21 12 37 20 W 1 0,0
05.07.2020 09:00:00 16,6 13,9 21 12 40 22 W 7 0,0
05.07.2020 08:00:00 16,2 13,7 25 13 42 23 W 0 0,0
05.07.2020 07:00:00 15,4 13,4 26 14 38 21 W 0 0,0
05.07.2020 06:00:00 15,3 13,0 22 12 35 19 W 0 0,0
05.07.2020 05:00:00 15,4 12,9 22 12 44 24 W 0 0,0
05.07.2020 04:00:00 15,7 12,6 26 14 39 21 W 0 0,0
05.07.2020 03:00:00 16,1 12,3 24 13 40 22 W 0 0,0
05.07.2020 02:00:00 16,5 12,5 23 13 36 19 W 0 0,0
05.07.2020 01:00:00 17,1 12,4 23 12 39 21 W 0 0,0
05.07.2020 00:00:00 17,5 12,2 25 14 40 21 WNW 0 0,0
04.07.2020 23:00:00 18,0 11,5 18 10 28 15 WNW 0 0,0
04.07.2020 22:00:00 18,2 10,8 16 9 31 17 WNW 0 0,0
04.07.2020 21:00:00 19,9 11,1 14 8 29 16 WNW 30 0,0
04.07.2020 20:00:00 20,7 11,1 12 6 34 18 WNW 49 0,0
04.07.2020 19:00:00 22,9 10,3 21 11 38 20 W 52 0,0
04.07.2020 18:00:00 22,9 11,3 16 9 37 20 W 60 0,0
04.07.2020 17:00:00 22,8 10,9 17 9 35 19 W 60 0,0
04.07.2020 16:00:00 22,5 11,9 18 10 39 21 W 60 0,0
04.07.2020 15:00:00 21,0 10,8 21 11 37 20 W 60 0,0
04.07.2020 14:00:00 20,6 10,7 20 11 35 19 W 60 0,0
04.07.2020 13:00:00 19,6 10,8 21 11 35 19 W 56 0,0
04.07.2020 12:00:00 18,6 11,4 18 10 34 19 W 56 0,0
04.07.2020 11:00:00 17,4 11,7 16 9 28 15 W 60 0,0
04.07.2020 10:00:00 16,1 11,0 14 8 23 13 W 60 0,0
04.07.2020 09:00:00 15,0 9,8 9 5 20 11 WNW 56 0,0
04.07.2020 08:00:00 13,5 8,8 8 4 29 16 WNW 58 0,0
04.07.2020 07:00:00 11,2 8,6 20 11 31 17 W 39 0,0
04.07.2020 06:00:00 12,0 8,3 11 6 18 10 W 0 0,0
04.07.2020 05:00:00 12,5 8,4 7 4 21 11 WNW 0 0,0
04.07.2020 04:00:00 12,7 8,6 9 5 21 11 WNW 0 0,0
04.07.2020 03:00:00 13,2 9,1 8 5 29 15 WNW 0 0,0
04.07.2020 02:00:00 13,2 9,1 15 8 30 16 WNW 0 0,0
04.07.2020 01:00:00 14,1 8,7 15 8 21 11 W 0 0,0
04.07.2020 00:00:00 14,8 8,9 13 7 19 11 WNW 0 0,0
03.07.2020 23:00:00 14,7 8,4 3 2 12 7 NNW 0 0,0
03.07.2020 22:00:00 15,2 8,7 3 2 12 7 NNW 0 0,0
03.07.2020 21:00:00 15,9 8,4 2 1 14 8 N 4 0,0
03.07.2020 20:00:00 19,8 9,4 5 3 21 12 NW 32 0,0
03.07.2020 19:00:00 18,1 8,6 3 2 16 9 NNW 1 0,0
03.07.2020 18:00:00 21,1 9,3 5 3 22 12 N 55 0,0
03.07.2020 17:00:00 20,3 10,4 5 3 21 11 NW 10 0,0
03.07.2020 16:00:00 19,5 10,2 5 3 26 14 NNW 6 0,0
03.07.2020 15:00:00 19,8 10,2 9 5 26 14 WNW 10 0,0
03.07.2020 14:00:00 19,6 10,3 9 5 31 17 NW 15 0,0
03.07.2020 13:00:00 16,9 10,3 9 5 18 10 WNW 0 0,0
03.07.2020 12:00:00 17,0 10,4 8 5 20 11 WNW 33 0,0
03.07.2020 11:00:00 17,0 11,5 6 4 22 12 W 51 0,0
03.07.2020 10:00:00 14,0 11,2 10 5 16 9 WNW 0 0,0
03.07.2020 09:00:00 13,2 9,4 3 2 14 8 NNW 0 0,0
03.07.2020 08:00:00 12,2 9,4 8 4 14 8 WNW 0 0,0
03.07.2020 07:00:00 11,9 9,1 7 4 15 8 W 0 0,0
03.07.2020 06:00:00 12,3 9,1 9 5 17 9 W 0 0,0
03.07.2020 05:00:00 12,0 9,0 11 6 21 11 WNW 0 0,0
03.07.2020 04:00:00 12,1 9,3 10 6 21 12 WNW 0 0,0
03.07.2020 03:00:00 12,6 9,4 14 8 23 12 WNW 0 0,0
03.07.2020 02:00:00 12,5 9,7 13 7 24 13 WNW 0 0,0
03.07.2020 01:00:00 13,0 9,6 10 5 21 11 WNW 0 0,0
03.07.2020 00:00:00 13,5 10,1 11 6 23 12 WNW 0 0,0
02.07.2020 23:00:00 14,2 10,4 14 8 25 14 WNW 0 0,0
02.07.2020 22:00:00 14,9 10,3 17 9 32 18 WNW 3 0,0
02.07.2020 21:00:00 16,2 10,3 20 11 37 20 WNW 6 0,0
02.07.2020 20:00:00 16,5 10,8 23 12 44 24 WNW 0 0,0
02.07.2020 19:00:00 17,7 10,6 26 14 49 27 W 7 0,0
02.07.2020 18:00:00 17,9 10,5 26 14 49 26 W 0 0,0
02.07.2020 17:00:00 17,9 10,5 19 11 42 23 WNW 3 0,0
02.07.2020 16:00:00 18,8 10,9 24 13 45 25 W 0 0,0
02.07.2020 15:00:00 19,5 11,3 24 13 45 24 W 17 0,0
02.07.2020 14:00:00 21,0 12,2 26 14 45 24 W 35 0,0
02.07.2020 13:00:00 18,7 12,9 23 13 40 22 W 44 0,0
02.07.2020 12:00:00 18,2 12,0 23 12 45 25 W 42 0,0
02.07.2020 11:00:00 17,4 11,7 21 12 41 22 W 39 0,0
02.07.2020 10:00:00 15,1 10,9 24 13 46 25 W 13 0,0
02.07.2020 09:00:00 15,8 12,4 24 13 46 25 W 60 0,0
02.07.2020 08:00:00 14,6 13,0 23 12 46 25 WNW 12 0,0
02.07.2020 07:00:00 14,8 13,3 19 11 35 19 W 0 0,0
02.07.2020 06:00:00 15,2 13,2 20 11 39 21 WNW 0 0,0
02.07.2020 05:00:00 15,9 13,9 22 12 38 21 W 0 0,0
02.07.2020 04:00:00 17,0 15,3 18 10 - - W 0 0,0
02.07.2020 03:00:00 17,5 15,3 20 11 36 19 W 0 0,0
02.07.2020 02:00:00 17,9 15,3 22 12 34 19 W 0 0,0
02.07.2020 01:00:00 18,0 15,4 22 12 34 19 W 0 0,0
02.07.2020 00:00:00 18,5 15,6 21 12 35 19 WNW 0 0,0
01.07.2020 23:00:00 19,2 16,1 15 8 29 16 WNW 0 0,0
01.07.2020 22:00:00 19,7 16,3 18 10 36 20 W 0 0,0
01.07.2020 21:00:00 20,2 16,0 20 11 41 22 W 33 0,0
01.07.2020 20:00:00 21,4 17,0 23 12 39 21 W 12 0,0
01.07.2020 19:00:00 23,2 17,0 18 10 42 23 WNW 41 0,0
01.07.2020 18:00:00 22,6 16,4 21 11 42 23 WNW 16 0,0
01.07.2020 17:00:00 25,2 16,6 21 11 48 26 WNW 51 0,0
01.07.2020 16:00:00 25,5 17,7 21 12 40 22 W 53 0,0
01.07.2020 15:00:00 24,5 17,0 20 11 38 20 W 40 0,0
01.07.2020 14:00:00 22,0 16,5 21 11 38 20 W 0 0,0
01.07.2020 13:00:00 22,3 16,6 19 10 32 18 W 32 0,0

tt = Température de l'air
td = dewpoint
ff = Vitesse du vent
fx = gusts
dd = Direction du vent
sd = Ensoleillement
rr = Quantités de précipitations

stations d'obs. à proximité